ICE2B KIAD-BIKF
Flight info
| Callsign | ICE2B |
|---|---|
| Flight time | N/A |
| Altitude | 33000 |
| Route | JCOBY4 SWANN DCT BROSS Q419 RBV Q22 FOXWD DCT WITCH DCT TOPPS DCT MELDI/M078F330 DCT 56N050W 5930N04000W 63N030W DCT EPENI DCT ELDIS ELDIS4N |
| Aircraft | B38M/M-SDE1FGHILORVWXY/HB1 |
Departure
| Time | 2026-05-05 12:53 |
|---|---|
| Airport | Washington Dulles International Airport (KIAD) |
Arrival
| Time | N/A |
|---|---|
| Airport | Keflavik International Airport (BIKF) |
| Time | Latitude | Longitude | Altitude | Speed | Heading |
|---|---|---|---|---|---|
| 2026-05-05 12:23 | 38.94809 | -77.45039 | 295 ft | 0 kts | 27° |
| 2026-05-05 12:32 | 38.94808 | -77.45039 | 295 ft | 0 kts | 27° |
| 2026-05-05 12:43 | 38.94794 | -77.45049 | 298 ft | 4 kts | 27° |
| 2026-05-05 12:43 | 38.94769 | -77.45065 | 298 ft | 4 kts | 27° |
| 2026-05-05 12:44 | 38.94750 | -77.45078 | 297 ft | 4 kts | 22° |
| 2026-05-05 12:44 | 38.94732 | -77.45079 | 296 ft | 4 kts | 307° |
| 2026-05-05 12:44 | 38.94728 | -77.45051 | 299 ft | 4 kts | 271° |
| 2026-05-05 12:44 | 38.94728 | -77.45039 | 299 ft | 0 kts | 271° |
| 2026-05-05 12:48 | 38.94728 | -77.45043 | 299 ft | 2 kts | 272° |
| 2026-05-05 12:48 | 38.94729 | -77.45097 | 296 ft | 11 kts | 272° |
| 2026-05-05 12:48 | 38.94732 | -77.45229 | 295 ft | 19 kts | 270° |
| 2026-05-05 12:48 | 38.94734 | -77.45410 | 295 ft | 21 kts | 271° |
| 2026-05-05 12:49 | 38.94731 | -77.45569 | 295 ft | 15 kts | 252° |
| 2026-05-05 12:49 | 38.94642 | -77.45610 | 297 ft | 14 kts | 179° |
| 2026-05-05 12:49 | 38.94540 | -77.45611 | 298 ft | 15 kts | 180° |
| 2026-05-05 12:49 | 38.94419 | -77.45612 | 297 ft | 21 kts | 180° |
| 2026-05-05 12:50 | 38.94256 | -77.45614 | 298 ft | 22 kts | 180° |
| 2026-05-05 12:50 | 38.94100 | -77.45617 | 296 ft | 22 kts | 181° |
| 2026-05-05 12:50 | 38.93945 | -77.45619 | 296 ft | 22 kts | 180° |
| 2026-05-05 12:50 | 38.93797 | -77.45619 | 295 ft | 20 kts | 180° |
| 2026-05-05 12:51 | 38.93675 | -77.45574 | 295 ft | 18 kts | 131° |
| 2026-05-05 12:51 | 38.93581 | -77.45506 | 297 ft | 16 kts | 189° |
| 2026-05-05 12:51 | 38.93478 | -77.45551 | 295 ft | 16 kts | 200° |
| 2026-05-05 12:51 | 38.93385 | -77.45621 | 297 ft | 16 kts | 244° |
| 2026-05-05 12:52 | 38.93409 | -77.45750 | 298 ft | 17 kts | 291° |
| 2026-05-05 12:52 | 38.93508 | -77.46085 | 297 ft | 73 kts | 291° |
| 2026-05-05 12:52 | 38.93766 | -77.46963 | 302 ft | 135 kts | 291° |
| 2026-05-05 12:52 | 38.94158 | -77.48301 | 322 ft | 182 kts | 286° |
| 2026-05-05 12:53 | 38.94640 | -77.49867 | 884 ft | 193 kts | 289° |
| 2026-05-05 12:53 | 38.95260 | -77.51350 | 1617 ft | 187 kts | 304° |
| 2026-05-05 12:53 | 38.96179 | -77.52644 | 2190 ft | 201 kts | 309° |
| 2026-05-05 12:53 | 38.97188 | -77.54003 | 2438 ft | 221 kts | 311° |
| 2026-05-05 12:54 | 39.00210 | -77.54764 | 2870 ft | 246 kts | 15° |
| 2026-05-05 12:54 | 39.01730 | -77.53601 | 3530 ft | 269 kts | 43° |
| 2026-05-05 12:54 | 39.02908 | -77.51630 | 4142 ft | 286 kts | 50° |
| 2026-05-05 12:55 | 39.04131 | -77.49606 | 5063 ft | 286 kts | 49° |
| 2026-05-05 12:55 | 39.05372 | -77.47581 | 5904 ft | 292 kts | 49° |
| 2026-05-05 12:55 | 39.06641 | -77.45530 | 6729 ft | 295 kts | 50° |
| 2026-05-05 12:55 | 39.07939 | -77.43440 | 7426 ft | 303 kts | 50° |
| 2026-05-05 12:56 | 39.09269 | -77.41309 | 8172 ft | 308 kts | 50° |
| 2026-05-05 12:56 | 39.10627 | -77.39127 | 8860 ft | 316 kts | 51° |
| 2026-05-05 12:56 | 39.12009 | -77.36910 | 9630 ft | 320 kts | 51° |
| 2026-05-05 12:56 | 39.13420 | -77.34646 | 10274 ft | 327 kts | 51° |
| 2026-05-05 12:57 | 39.14758 | -77.32193 | 10598 ft | 344 kts | 66° |
| 2026-05-05 12:57 | 39.15386 | -77.29180 | 10896 ft | 356 kts | 91° |
| 2026-05-05 12:57 | 39.15117 | -77.26053 | 11267 ft | 361 kts | 108° |
| 2026-05-05 12:57 | 39.14556 | -77.22787 | 11715 ft | 372 kts | 106° |
| 2026-05-05 12:58 | 39.14016 | -77.19560 | 12386 ft | 376 kts | 106° |
| 2026-05-05 12:58 | 39.13472 | -77.16233 | 12971 ft | 382 kts | 105° |
| 2026-05-05 12:58 | 39.12939 | -77.12870 | 13636 ft | 386 kts | 105° |
| 2026-05-05 12:58 | 39.12395 | -77.09457 | 14204 ft | 390 kts | 105° |
| 2026-05-05 12:59 | 39.11844 | -77.06019 | 14764 ft | 394 kts | 105° |
| 2026-05-05 12:59 | 39.11286 | -77.02555 | 15313 ft | 398 kts | 105° |
| 2026-05-05 12:59 | 39.10790 | -76.99034 | 15847 ft | 405 kts | 97° |
| 2026-05-05 13:00 | 39.10896 | -76.91716 | 16880 ft | 414 kts | 90° |
| 2026-05-05 13:00 | 39.10985 | -76.87991 | 17436 ft | 417 kts | 90° |
| 2026-05-05 13:01 | 39.11235 | -76.77939 | 18737 ft | 426 kts | 90° |
| 2026-05-05 13:01 | 39.11328 | -76.74126 | 19222 ft | 427 kts | 89° |
| 2026-05-05 13:01 | 39.11452 | -76.68984 | 19836 ft | 431 kts | 89° |
| 2026-05-05 13:01 | 39.11512 | -76.66434 | 20098 ft | 432 kts | 89° |
| 2026-05-05 13:02 | 39.11632 | -76.61306 | 20701 ft | 434 kts | 89° |
| 2026-05-05 13:02 | 39.11722 | -76.57414 | 21173 ft | 436 kts | 89° |
| 2026-05-05 13:02 | 39.11813 | -76.53502 | 21625 ft | 438 kts | 88° |
| 2026-05-05 13:02 | 39.12156 | -76.49593 | 22053 ft | 440 kts | 82° |
| 2026-05-05 13:03 | 39.12588 | -76.45684 | 22501 ft | 442 kts | 82° |
| 2026-05-05 13:03 | 39.12886 | -76.43027 | 22796 ft | 443 kts | 82° |
| 2026-05-05 13:03 | 39.13330 | -76.39090 | 23233 ft | 445 kts | 82° |
| 2026-05-05 13:03 | 39.13775 | -76.35140 | 23636 ft | 447 kts | 82° |
| 2026-05-05 13:04 | 39.14221 | -76.31169 | 23976 ft | 449 kts | 82° |
| 2026-05-05 13:04 | 39.14662 | -76.27232 | 24300 ft | 451 kts | 82° |
| 2026-05-05 13:04 | 39.15113 | -76.23223 | 24629 ft | 453 kts | 81° |
| 2026-05-05 13:04 | 39.15579 | -76.19199 | 24953 ft | 455 kts | 82° |
| 2026-05-05 13:05 | 39.16044 | -76.15158 | 25271 ft | 457 kts | 82° |
| 2026-05-05 13:05 | 39.16508 | -76.11102 | 25586 ft | 458 kts | 82° |
| 2026-05-05 13:05 | 39.16973 | -76.07034 | 25928 ft | 460 kts | 82° |
| 2026-05-05 13:05 | 39.17438 | -76.02940 | 26226 ft | 462 kts | 82° |
| 2026-05-05 13:06 | 39.17904 | -75.98834 | 26529 ft | 464 kts | 82° |
| 2026-05-05 13:06 | 39.18373 | -75.94709 | 26812 ft | 467 kts | 81° |
| 2026-05-05 13:06 | 39.19219 | -75.90679 | 27065 ft | 467 kts | 66° |
| 2026-05-05 13:06 | 39.20817 | -75.87053 | 27342 ft | 466 kts | 50° |
| 2026-05-05 13:07 | 39.23057 | -75.84037 | 27557 ft | 465 kts | 39° |
| 2026-05-05 13:07 | 39.25471 | -75.81261 | 27825 ft | 467 kts | 39° |
| 2026-05-05 13:07 | 39.27930 | -75.78498 | 28083 ft | 469 kts | 38° |
| 2026-05-05 13:07 | 39.30415 | -75.75741 | 28360 ft | 471 kts | 38° |
| 2026-05-05 13:08 | 39.32907 | -75.72999 | 28620 ft | 473 kts | 38° |
| 2026-05-05 13:08 | 39.35416 | -75.70246 | 28884 ft | 475 kts | 38° |
| 2026-05-05 13:08 | 39.37914 | -75.67506 | 29158 ft | 476 kts | 37° |
| 2026-05-05 13:08 | 39.40445 | -75.64727 | 29431 ft | 478 kts | 37° |
| 2026-05-05 13:09 | 39.42980 | -75.61941 | 29690 ft | 479 kts | 37° |
| 2026-05-05 13:09 | 39.45524 | -75.59142 | 29934 ft | 481 kts | 37° |
| 2026-05-05 13:09 | 39.48080 | -75.56325 | 30154 ft | 483 kts | 37° |
| 2026-05-05 13:09 | 39.50634 | -75.53510 | 30364 ft | 484 kts | 38° |
| 2026-05-05 13:10 | 39.53202 | -75.50676 | 30582 ft | 485 kts | 38° |
| 2026-05-05 13:10 | 39.55767 | -75.47842 | 30865 ft | 484 kts | 38° |
| 2026-05-05 13:10 | 39.58334 | -75.45004 | 31194 ft | 483 kts | 38° |
| 2026-05-05 13:10 | 39.60884 | -75.42181 | 31497 ft | 482 kts | 38° |
| 2026-05-05 13:11 | 39.63429 | -75.39361 | 31764 ft | 481 kts | 38° |
| 2026-05-05 13:11 | 39.65937 | -75.36579 | 32032 ft | 481 kts | 38° |
| 2026-05-05 13:11 | 39.68470 | -75.33767 | 32310 ft | 480 kts | 38° |
| 2026-05-05 13:11 | 39.71004 | -75.30951 | 32579 ft | 479 kts | 39° |
| 2026-05-05 13:12 | 39.73526 | -75.28144 | 32849 ft | 478 kts | 39° |
| 2026-05-05 13:12 | 39.76052 | -75.25332 | 32988 ft | 479 kts | 39° |
| 2026-05-05 13:12 | 39.80831 | -75.19345 | 32985 ft | 477 kts | 47° |
| 2026-05-05 13:13 | 39.85222 | -75.12846 | 32968 ft | 478 kts | 47° |
| 2026-05-05 13:13 | 39.89600 | -75.06339 | 32970 ft | 478 kts | 47° |
| 2026-05-05 13:14 | 39.93975 | -74.99821 | 32974 ft | 478 kts | 48° |
| 2026-05-05 13:14 | 39.98115 | -74.93043 | 32970 ft | 478 kts | 56° |
| 2026-05-05 13:15 | 40.01821 | -74.85821 | 32956 ft | 479 kts | 56° |
| 2026-05-05 13:15 | 40.05508 | -74.78588 | 32964 ft | 479 kts | 56° |
| 2026-05-05 13:16 | 40.09193 | -74.71340 | 32946 ft | 479 kts | 56° |
| 2026-05-05 13:16 | 40.12871 | -74.64086 | 32958 ft | 479 kts | 56° |
| 2026-05-05 13:17 | 40.16541 | -74.56832 | 32950 ft | 479 kts | 56° |
| 2026-05-05 13:17 | 40.20313 | -74.49748 | 32929 ft | 477 kts | 45° |
| 2026-05-05 13:18 | 40.25339 | -74.44133 | 32939 ft | 477 kts | 38° |
| 2026-05-05 13:18 | 40.30450 | -74.38610 | 32973 ft | 477 kts | 38° |
| 2026-05-05 13:19 | 40.35582 | -74.33111 | 32960 ft | 475 kts | 38° |
| 2026-05-05 13:19 | 40.40702 | -74.27618 | 32944 ft | 476 kts | 38° |
| 2026-05-05 13:20 | 40.45818 | -74.22119 | 32943 ft | 476 kts | 38° |
| 2026-05-05 13:20 | 40.50936 | -74.16606 | 32944 ft | 476 kts | 38° |